CDT,Max TemperatureF,Mean TemperatureF,Min TemperatureF,Max Dew PointF,MeanDew PointF,Min DewpointF,Max Humidity, Mean Humidity, Min Humidity, Max Sea Level PressureIn, Mean Sea Level PressureIn, Min Sea Level PressureIn, Max VisibilityMiles, Mean VisibilityMiles, Min VisibilityMiles, Max Wind SpeedMPH, Mean Wind SpeedMPH, Max Gust SpeedMPH,PrecipitationIn, CloudCover, Events, WindDirDegrees
2012-5-1,80,66,53,63,55,50,100,75,39,29.78,29.65,29.53,10,8,2,25,14,33,1.26,3,Rain-Thunderstorm,167
2012-5-2,78,66,53,66,59,54,100,81,51,29.77,29.70,29.58,10,8,0,13,7,16,0.00,2,Fog-Rain-Thunderstorm,173
2012-5-3,75,68,62,64,61,54,100,80,50,29.92,29.80,29.70,10,7,1,15,8,17,0.00,3,,340
2012-5-4,73,64,55,63,57,54,100,85,64,29.93,29.88,29.79,10,10,1,28,10,37,2.30,4,Rain-Thunderstorm,61
2012-5-5,64,60,55,61,58,54,100,92,77,30.00,29.89,29.81,10,6,0,24,10,38,0.42,7,Fog-Rain-Thunderstorm,70
2012-5-6,66,60,53,61,55,48,100,88,73,30.04,29.95,29.82,10,10,2,25,13,33,0.85,5,Rain-Thunderstorm,338
2012-5-7,64,55,46,48,41,32,87,61,32,30.04,30.00,29.95,10,10,10,28,14,34,0.00,1,,286
2012-5-8,55,48,42,48,44,41,93,83,71,30.01,29.95,29.91,10,10,4,23,12,29,0.16,3,Rain-Thunderstorm,284
2012-5-9,60,52,44,46,43,37,100,73,42,30.08,30.01,29.94,10,10,7,15,8,17,0.00,4,,334
2012-5-10,75,60,46,50,43,39,82,53,31,29.94,29.85,29.75,10,10,10,21,11,29,0.00,0,,148
2012-5-11,64,56,48,52,45,34,87,67,36,30.27,30.02,29.74,10,10,10,31,19,41,0.00,3,Rain,298
2012-5-12,64,55,46,46,33,23,93,50,21,30.37,30.31,30.27,10,10,10,10,5,17,0.00,1,,338
2012-5-13,73,56,39,41,34,27,87,46,20,30.30,30.22,30.11,10,10,10,14,3,21,0.00,0,,244
2012-5-14,82,65,48,45,41,36,71,42,20,30.11,30.01,29.90,10,10,2,15,6,20,0.00,0,,227
2012-5-15,73,62,50,45,39,34,58,41,28,30.11,29.98,29.87,10,10,10,26,12,33,0.00,0,,313
2012-5-16,73,58,42,39,37,34,81,48,27,30.17,30.09,29.97,10,10,10,10,4,,0.00,0,,104
2012-5-17,89,74,59,54,46,34,56,39,22,29.97,29.82,29.71,10,10,10,33,17,44,0.00,0,,167
2012-5-18,91,78,66,61,54,48,61,45,24,29.77,29.73,29.68,10,10,10,26,18,40,0.00,0,Rain-Thunderstorm,168
2012-5-19,80,68,55,63,57,52,94,64,50,29.86,29.78,29.70,10,10,3,23,16,30,0.19,2,Rain-Thunderstorm,182
2012-5-20,62,56,50,54,48,39,100,78,42,30.22,30.07,29.83,10,9,2,25,15,32,0.00,4,,326
2012-5-21,73,60,46,52,46,43,93,60,35,30.26,30.19,30.07,10,10,10,10,4,,0.00,1,,206
2012-5-22,84,70,55,52,48,45,72,46,32,30.06,29.82,29.61,10,10,10,28,13,37,0.00,0,,169
2012-5-23,87,72,57,61,54,46,100,61,37,29.63,29.51,29.39,10,10,5,26,17,36,0.95,4,Rain-Thunderstorm,179
2012-5-24,60,56,53,59,55,50,100,90,72,29.77,29.54,29.43,10,9,2,23,10,31,1.22,7,Rain-Thunderstorm,339
2012-5-25,64,55,46,57,52,46,100,84,63,30.07,29.97,29.78,10,10,10,9,4,,0.00,3,Rain-Thunderstorm,111
2012-5-26,71,64,57,68,60,55,100,92,83,30.06,29.93,29.76,10,8,2,24,11,29,0.53,6,Rain-Thunderstorm,86
2012-5-27,87,74,62,70,67,61,100,76,51,29.75,29.67,29.58,10,9,2,40,13,48,0.91,2,Rain-Thunderstorm,181
2012-5-28,73,64,55,63,56,46,100,75,49,29.84,29.73,29.63,10,10,7,23,10,33,0.18,2,Rain-Thunderstorm,235
2012-5-29,62,55,48,48,45,43,87,68,48,29.99,29.90,29.80,10,10,10,28,15,32,0.00,4,,275
2012-5-30,55,48,42,48,43,39,100,81,62,30.05,30.01,29.94,10,10,7,13,8,16,0.20,4,Rain,356
2012-5-31,62,54,46,48,45,39,100,77,48,30.06,30.03,30.00,10,10,7,14,9,21,0.00,5,Rain,357